Saturday, January 20, 2018, 8:24 AM EST
Back to Local

KMTN, Baltimore / Martin

Location: Middle River, MD, United States Lat: 39.333
Local Time: 8:24 AM EST (13:24 GMT) Lon: -76.417
Time Zone: US/Eastern Elev: 22 ft

Show me the last for .
Show Decoded

2018-01-20 07:45 METAR KMTN 201245Z 00000KT 10SM SCT200 M03/M04 A3002 =
2018-01-20 06:45 METAR KMTN 201145Z 00000KT 10SM SCT200 M03/M04 A3000 =
2018-01-20 05:45 METAR KMTN 201045Z 00000KT 10SM SKC M03/M04 A3000 RMK FIRST =
2018-01-20 05:39 METAR KMTN 201039Z AUTO 00000KT 10SM CLR M03/M04 A2999 RMK AO2 =
2018-01-20 05:24 METAR KMTN 201024Z AUTO 00000KT 10SM CLR M02/M03 A2999 RMK AO2 =
2018-01-20 05:03 METAR KMTN 201003Z AUTO 27003KT 10SM CLR M03/M04 A2999 RMK AO2 =
2018-01-20 04:42 METAR KMTN 200942Z AUTO 00000KT 10SM CLR M03/M04 A3000 RMK AO2 =
2018-01-20 04:24 METAR KMTN 200924Z AUTO 00000KT 10SM CLR M03/M05 A3000 RMK AO2 =
2018-01-20 04:03 METAR KMTN 200903Z AUTO 00000KT 10SM CLR M02/M03 A3000 RMK AO2 =
2018-01-20 03:42 METAR KMTN 200842Z AUTO 00000KT 10SM CLR M03/M04 A3000 RMK AO2 =
2018-01-20 03:24 METAR KMTN 200824Z AUTO 00000KT 10SM CLR M02/M03 A3000 RMK AO2 =
2018-01-20 02:42 METAR KMTN 200742Z AUTO 00000KT 10SM CLR M02/M04 A3001 RMK AO2 =
2018-01-20 02:24 METAR KMTN 200724Z AUTO 00000KT 10SM CLR M02/M04 A3001 RMK AO2 =
2018-01-20 02:03 METAR KMTN 200703Z AUTO 00000KT 10SM CLR M02/M03 A3000 RMK AO2 =
2018-01-20 01:42 METAR KMTN 200642Z AUTO 00000KT 10SM CLR M02/M04 A3001 RMK AO2 =
2018-01-20 01:24 METAR KMTN 200624Z AUTO 24003KT 10SM CLR M02/M04 A3002 RMK AO2 =
2018-01-20 01:03 METAR KMTN 200603Z AUTO 00000KT 10SM CLR M02/M04 A3002 RMK AO2 =
2018-01-20 00:42 METAR KMTN 200542Z AUTO 00000KT 10SM CLR M02/M05 A3003 RMK AO2 =
2018-01-20 00:24 METAR KMTN 200524Z AUTO 00000KT 10SM CLR M02/M05 A3003 RMK AO2 =
2018-01-20 00:03 METAR KMTN 200503Z AUTO 00000KT 10SM CLR M02/M05 A3004 RMK AO2 =
2018-01-19 23:42 METAR KMTN 200442Z AUTO 00000KT 10SM CLR M01/M04 A3005 RMK AO2 =
2018-01-19 23:24 METAR KMTN 200424Z AUTO 00000KT 10SM CLR M02/M04 A3004 RMK AO2 =
2018-01-19 23:03 METAR KMTN 200403Z AUTO 00000KT 10SM CLR M01/M04 A3005 RMK AO2 =
2018-01-19 22:42 METAR KMTN 200342Z AUTO 00000KT 10SM CLR M02/M03 A3005 RMK AO2 =
2018-01-19 22:24 METAR KMTN 200324Z AUTO 00000KT 10SM CLR M01/M04 A3005 RMK AO2 =
2018-01-19 21:45 METAR KMTN 200245Z 00000KT 10SM SKC M02/M05 A3006 RMK LAST =
2018-01-19 20:45 METAR KMTN 200145Z 00000KT 10SM SKC M01/M05 A3006 =
2018-01-19 19:45 METAR KMTN 200045Z 00000KT 10SM SKC 00/M05 A3007 =
2018-01-19 18:45 METAR KMTN 192345Z 00000KT 10SM SKC 01/M05 A3006 =
2018-01-19 17:45 METAR KMTN 192245Z 14007KT 10SM FEW250 04/M05 A3005 =
2018-01-19 16:45 METAR KMTN 192145Z 14007KT 10SM FEW250 04/M03 A3005 =
2018-01-19 15:45 METAR KMTN 192045Z 14006KT 10SM FEW250 11/M07 A3005 =
2018-01-19 14:45 METAR KMTN 191945Z 24008KT 10SM FEW250 11/M07 A3005 =
2018-01-19 13:45 METAR KMTN 191845Z 26009KT 200V270 10SM FEW250 10/M08 A3006 =
2018-01-19 12:45 METAR KMTN 191745Z 25010G15KT 220V280 10SM FEW250 09/M07 A3008 =
2018-01-19 11:45 METAR KMTN 191645Z 00000KT 10SM SCT250 07/M08 A3012 =
2018-01-19 10:45 METAR KMTN 191545Z 27007KT 10SM SCT150 SCT200 06/M07 A3015 =
2018-01-19 09:45 METAR KMTN 191445Z 00000KT 10SM SCT150 SCT200 03/M04 A3015 =
2018-01-19 08:45 METAR KMTN 191345Z 00000KT 10SM SCT200 M01/M03 A3014 =

Support USWX by starting your Amazon purchase here.